Time;durP1;ratioP1;P1;durP2;ratioP2;P2;SDS_P1;SDS_P2;PMS_P1;PMS_P2;Temp;Humidity;BMP_temperature;BMP_pressure;BME280_temperature;BME280_humidity;BME280_pressure;Samples;Min_cycle;Max_cycle;Signal;HPM_P1;HPM_P2
2021/05/15 00:00:11;;;;;;;25.80;13.70;;;;;;;-145.50;100.00;65435.88;4992827;28;20121;-73
2021/05/15 00:02:37;;;;;;;21.10;13.43;;;;;;;-145.50;100.00;65435.88;4993482;28;20080;-73
2021/05/15 00:05:07;;;;;;;26.13;13.25;;;;;;;-145.50;100.00;65435.88;4989472;28;20034;-72
2021/05/15 00:07:32;;;;;;;23.27;13.27;;;;;;;-145.50;100.00;65435.88;4997743;28;20894;-73
2021/05/15 00:09:58;;;;;;;22.50;13.27;;;;;;;-145.50;100.00;65435.88;5002310;28;20038;-73
2021/05/15 00:12:23;;;;;;;21.85;13.77;;;;;;;-145.50;100.00;65435.88;4989677;28;20033;-73
2021/05/15 00:14:49;;;;;;;21.45;13.55;;;;;;;-145.50;100.00;65435.88;5001414;28;20038;-73
2021/05/15 00:17:14;;;;;;;23.55;12.77;;;;;;;-145.50;100.00;65435.88;4986148;28;20025;-73
2021/05/15 00:19:40;;;;;;;26.63;14.15;;;;;;;-145.50;100.00;65435.88;4997958;28;20052;-73
2021/05/15 00:22:05;;;;;;;24.50;12.82;;;;;;;-145.50;100.00;65435.88;4992836;28;20478;-73
2021/05/15 00:24:30;;;;;;;20.52;12.63;;;;;;;-145.50;100.00;65435.88;4988901;28;20044;-73
2021/05/15 00:26:56;;;;;;;21.55;12.63;;;;;;;-145.50;100.00;65435.88;4999015;28;20158;-73
2021/05/15 00:29:21;;;;;;;22.67;13.82;;;;;;;-145.50;100.00;65435.88;4993181;28;20030;-73
2021/05/15 00:31:47;;;;;;;21.85;13.35;;;;;;;-145.50;100.00;65435.88;4990718;28;20118;-73
2021/05/15 00:34:12;;;;;;;21.23;12.90;;;;;;;-145.50;100.00;65435.88;4989880;28;20033;-72
2021/05/15 00:36:37;;;;;;;22.60;12.27;;;;;;;-145.50;100.00;65435.88;4998652;28;20042;-72
2021/05/15 00:39:04;;;;;;;22.13;13.55;;;;;;;-145.50;100.00;65435.88;5002645;28;20032;-73
2021/05/15 00:41:29;;;;;;;24.15;14.05;;;;;;;-145.50;100.00;65435.88;4985554;28;20104;-72
2021/05/15 00:44:17;;;;;;;26.00;14.25;;;;;;;-145.50;100.00;65435.88;4998560;28;20485;-72
2021/05/15 00:46:45;;;;;;;21.70;13.45;;;;;;;-145.50;100.00;65435.88;4991305;28;20037;-72
2021/05/15 00:49:11;;;;;;;24.42;14.00;;;;;;;-145.50;100.00;65435.88;5004705;28;20409;-72
2021/05/15 00:51:36;;;;;;;23.98;13.98;;;;;;;-145.50;100.00;65435.88;4993319;28;20041;-72
2021/05/15 00:54:03;;;;;;;21.25;13.35;;;;;;;-145.50;100.00;65435.88;5003464;28;20049;-72
2021/05/15 00:56:29;;;;;;;21.75;13.38;;;;;;;-145.50;100.00;65435.88;4994743;28;20100;-72
2021/05/15 00:58:56;;;;;;;22.45;13.75;;;;;;;-145.50;100.00;65435.88;4997098;28;20038;-72
2021/05/15 01:01:21;;;;;;;21.17;13.60;;;;;;;-145.50;100.00;65435.88;4997113;28;20136;-72
2021/05/15 01:03:46;;;;;;;22.85;14.60;;;;;;;-145.50;100.00;65435.88;4985735;28;20121;-72
2021/05/15 01:06:12;;;;;;;22.85;13.52;;;;;;;-145.50;100.00;65435.88;4995287;28;20033;-72
2021/05/15 01:08:42;;;;;;;26.23;14.65;;;;;;;-145.50;100.00;65435.88;4989717;28;20419;-72
2021/05/15 01:11:08;;;;;;;21.77;13.93;;;;;;;-145.50;100.00;65435.88;4994533;28;20030;-72
2021/05/15 01:13:35;;;;;;;22.42;14.45;;;;;;;-145.50;100.00;65435.88;4990777;28;20486;-72
2021/05/15 01:16:00;;;;;;;25.63;15.23;;;;;;;-145.50;100.00;65435.88;4996366;28;20110;-72
2021/05/15 01:18:26;;;;;;;21.83;13.45;;;;;;;-145.50;100.00;65435.88;5002480;28;20034;-72
2021/05/15 01:20:52;;;;;;;22.42;13.82;;;;;;;-145.50;100.00;65435.88;4991522;28;20072;-72
2021/05/15 01:23:17;;;;;;;25.35;14.65;;;;;;;-145.50;100.00;65435.88;5000570;28;20464;-71
2021/05/15 01:25:43;;;;;;;27.45;14.57;;;;;;;-145.50;100.00;65435.88;4990574;28;20060;-72
2021/05/15 01:28:08;;;;;;;26.75;14.70;;;;;;;-145.50;100.00;65435.88;4994379;28;20033;-73
2021/05/15 01:30:33;;;;;;;25.85;14.10;;;;;;;-145.50;100.00;65435.88;4996725;28;20062;-72
2021/05/15 01:32:59;;;;;;;24.35;15.10;;;;;;;-145.50;100.00;65435.88;4993810;28;20054;-73
2021/05/15 01:35:24;;;;;;;24.35;15.73;;;;;;;-145.50;100.00;65435.88;4998469;28;20066;-72
2021/05/15 01:37:55;;;;;;;25.42;14.50;;;;;;;-145.50;100.00;65435.88;4993925;28;20073;-73
2021/05/15 01:40:20;;;;;;;23.67;15.07;;;;;;;-145.50;100.00;65435.88;4995886;28;20066;-73
2021/05/15 01:42:45;;;;;;;25.48;14.95;;;;;;;-145.50;100.00;65435.88;4988809;28;20080;-72
2021/05/15 01:45:11;;;;;;;28.17;15.57;;;;;;;-145.50;100.00;65435.88;4998984;28;20041;-72
2021/05/15 01:47:37;;;;;;;27.33;15.45;;;;;;;-145.50;100.00;65435.88;4991770;28;20060;-72
2021/05/15 01:50:05;;;;;;;27.95;15.38;;;;;;;-145.50;100.00;65435.88;4997820;28;20119;-72
2021/05/15 01:52:30;;;;;;;25.95;15.27;;;;;;;-145.50;100.00;65435.88;4999261;28;20049;-72
2021/05/15 01:54:55;;;;;;;25.17;14.55;;;;;;;-145.50;100.00;65435.88;4991810;28;20378;-72
2021/05/15 01:57:21;;;;;;;26.20;15.18;;;;;;;-145.50;100.00;65435.88;4995799;28;20037;-72
2021/05/15 01:59:46;;;;;;;29.10;14.80;;;;;;;-145.50;100.00;65435.88;4995371;28;20125;-72
2021/05/15 02:02:11;;;;;;;28.25;15.70;;;;;;;-145.50;100.00;65435.88;4994951;28;20799;-72
2021/05/15 02:04:37;;;;;;;23.20;14.48;;;;;;;-145.50;100.00;65435.88;4994148;28;20062;-72
2021/05/15 02:07:02;;;;;;;25.60;15.02;;;;;;;-145.50;100.00;65435.88;4990329;28;20046;-72
2021/05/15 02:09:27;;;;;;;25.85;15.95;;;;;;;-145.50;100.00;65435.88;4995545;28;20041;-72
2021/05/15 02:11:53;;;;;;;23.83;14.75;;;;;;;-145.50;100.00;65435.88;4991861;28;20040;-72
2021/05/15 02:14:18;;;;;;;23.90;14.40;;;;;;;-145.50;100.00;65435.88;5002855;28;20049;-72
2021/05/15 02:16:43;;;;;;;26.02;15.07;;;;;;;-145.50;100.00;65435.88;4995602;28;20450;-72
2021/05/15 02:19:09;;;;;;;28.02;16.17;;;;;;;-145.50;100.00;65435.88;5003550;28;20406;-72
2021/05/15 02:21:34;;;;;;;25.52;15.77;;;;;;;-145.50;100.00;65435.88;4991773;28;20045;-72
2021/05/15 02:24:00;;;;;;;22.35;13.68;;;;;;;-145.50;100.00;65435.88;4985130;28;20789;-72
2021/05/15 02:26:25;;;;;;;27.92;15.55;;;;;;;-145.50;100.00;65435.88;4995200;28;20120;-72
2021/05/15 02:28:51;;;;;;;28.15;15.00;;;;;;;-145.50;100.00;65435.88;4996637;28;20087;-72
2021/05/15 02:31:16;;;;;;;26.30;14.50;;;;;;;-145.50;100.00;65435.88;4998152;28;20145;-72
2021/05/15 02:33:41;;;;;;;26.98;15.05;;;;;;;-145.50;100.00;65435.88;4996359;28;20037;-72
2021/05/15 02:36:07;;;;;;;24.50;14.40;;;;;;;-145.50;100.00;65435.88;4991912;28;20061;-72
2021/05/15 02:38:32;;;;;;;21.38;14.05;;;;;;;-145.50;100.00;65435.88;4994831;28;20033;-72
2021/05/15 02:40:58;;;;;;;27.38;14.95;;;;;;;-145.50;100.00;65435.88;4994705;28;20097;-72
2021/05/15 02:43:23;;;;;;;29.08;14.35;;;;;;;-145.50;100.00;65435.88;4995286;28;20049;-72
2021/05/15 02:45:49;;;;;;;23.85;14.45;;;;;;;-145.50;100.00;65435.88;4991657;28;20057;-72
2021/05/15 02:48:16;;;;;;;24.20;15.18;;;;;;;-145.50;100.00;65435.88;4997591;28;20045;-72
2021/05/15 02:50:47;;;;;;;30.15;16.05;;;;;;;-145.50;100.00;65435.88;4987879;28;20053;-72
2021/05/15 02:53:12;;;;;;;26.98;14.98;;;;;;;-145.50;100.00;65435.88;4996887;28;20030;-72
2021/05/15 02:55:38;;;;;;;30.73;15.60;;;;;;;-145.50;100.00;65435.88;4997002;28;20508;-72
2021/05/15 02:58:03;;;;;;;23.92;14.93;;;;;;;-145.50;100.00;65435.88;4989554;28;20073;-72
2021/05/15 03:00:29;;;;;;;25.13;15.18;;;;;;;-145.50;100.00;65435.88;4993838;28;20080;-74
2021/05/15 03:02:57;;;;;;;33.58;15.80;;;;;;;-145.50;100.00;65435.88;4993140;28;20053;-72
2021/05/15 03:05:25;;;;;;;25.73;15.93;;;;;;;-145.50;100.00;65435.88;4994478;28;20583;-74
2021/05/15 03:07:51;;;;;;;26.45;14.80;;;;;;;-145.50;100.00;65435.88;4994382;28;20036;-73
2021/05/15 03:10:19;;;;;;;26.40;15.95;;;;;;;-145.50;100.00;65435.88;5002343;28;20545;-73
2021/05/15 03:12:44;;;;;;;29.48;15.57;;;;;;;-145.50;100.00;65435.88;5017309;28;20053;-73
2021/05/15 03:15:12;;;;;;;32.05;15.23;;;;;;;-145.50;100.00;65435.88;4995191;28;20038;-72
2021/05/15 03:17:41;;;;;;;27.70;14.98;;;;;;;-145.50;100.00;65435.88;4998788;28;20041;-72
2021/05/15 03:20:11;;;;;;;26.52;15.23;;;;;;;-145.50;100.00;65435.88;4991835;28;20848;-72
2021/05/15 03:22:36;;;;;;;24.75;15.07;;;;;;;-145.50;100.00;65435.88;5003971;28;20033;-73
2021/05/15 03:25:04;;;;;;;27.08;16.02;;;;;;;-145.50;100.00;65435.88;4994918;28;20383;-73
2021/05/15 03:27:29;;;;;;;25.60;16.48;;;;;;;-145.50;100.00;65435.88;5001030;28;20042;-73
2021/05/15 03:29:55;;;;;;;31.05;17.48;;;;;;;-145.50;100.00;65435.88;5001257;28;20034;-73
2021/05/15 03:32:20;;;;;;;25.08;16.25;;;;;;;-145.50;100.00;65435.88;4993571;28;20041;-73
2021/05/15 03:34:46;;;;;;;30.70;17.13;;;;;;;-145.50;100.00;65435.88;4995362;28;20381;-73
2021/05/15 03:37:11;;;;;;;28.45;15.35;;;;;;;-145.50;100.00;65435.88;4998427;28;20044;-73
2021/05/15 03:39:37;;;;;;;26.58;15.90;;;;;;;-145.50;100.00;65435.88;4999067;28;20096;-73
2021/05/15 03:42:02;;;;;;;29.85;17.63;;;;;;;-145.50;100.00;65435.88;4999031;28;20074;-73
2021/05/15 03:44:27;;;;;;;30.50;16.75;;;;;;;-145.50;100.00;65435.88;4997285;28;20073;-73
2021/05/15 03:46:54;;;;;;;28.00;15.77;;;;;;;-145.50;100.00;65435.88;4994233;28;20103;-73
2021/05/15 03:49:19;;;;;;;26.83;16.25;;;;;;;-145.50;100.00;65435.88;4988171;28;20052;-73
2021/05/15 03:51:45;;;;;;;25.83;15.90;;;;;;;-145.50;100.00;65435.88;4994739;28;20109;-73
2021/05/15 03:54:10;;;;;;;26.30;15.73;;;;;;;-145.50;100.00;65435.88;4989402;28;20040;-73
2021/05/15 03:56:36;;;;;;;25.25;15.57;;;;;;;-145.50;100.00;65435.88;4997046;28;20129;-73
2021/05/15 03:59:01;;;;;;;27.10;15.52;;;;;;;-145.50;100.00;65435.88;4999445;28;20035;-73
2021/05/15 04:01:26;;;;;;;30.15;16.50;;;;;;;-145.50;100.00;65435.88;4989558;28;20040;-73
2021/05/15 04:03:52;;;;;;;29.48;16.58;;;;;;;-145.50;100.00;65435.88;4988570;28;20049;-73
2021/05/15 04:06:17;;;;;;;30.80;17.20;;;;;;;-145.50;100.00;65435.88;4992280;28;20030;-73
2021/05/15 04:08:42;;;;;;;31.98;17.52;;;;;;;-145.50;100.00;65435.88;4998969;28;20048;-73
2021/05/15 04:11:09;;;;;;;29.27;17.17;;;;;;;-145.50;100.00;65435.88;4995264;28;20053;-73
2021/05/15 04:16:03;;;;;;;33.20;17.63;;;;;;;-145.50;100.00;65435.88;4998991;28;20061;-73
2021/05/15 04:18:30;;;;;;;30.90;17.90;;;;;;;-145.50;100.00;65435.88;4996819;28;20069;-73
2021/05/15 04:20:56;;;;;;;29.52;17.67;;;;;;;-145.50;100.00;65435.88;5001053;28;20034;-73
2021/05/15 04:23:21;;;;;;;27.20;16.25;;;;;;;-145.50;100.00;65435.88;4988189;28;20034;-73
2021/05/15 04:25:47;;;;;;;32.28;18.42;;;;;;;-145.50;100.00;65435.88;5000777;28;20091;-73
2021/05/15 04:28:13;;;;;;;30.35;16.30;;;;;;;-145.50;100.00;65435.88;4990824;28;20575;-73
2021/05/15 04:30:38;;;;;;;27.13;16.95;;;;;;;-145.50;100.00;65435.88;4999488;28;20037;-73
2021/05/15 04:33:04;;;;;;;29.63;16.27;;;;;;;-145.50;100.00;65435.88;5000587;28;20406;-73
2021/05/15 04:35:32;;;;;;;32.80;18.15;;;;;;;-145.50;100.00;65435.88;4993493;28;20045;-73
2021/05/15 04:37:59;;;;;;;30.38;17.02;;;;;;;-145.50;100.00;65435.88;5003022;28;20045;-73
2021/05/15 04:40:24;;;;;;;26.55;16.88;;;;;;;-145.50;100.00;65435.88;4991400;28;20042;-73
2021/05/15 04:42:50;;;;;;;30.17;18.52;;;;;;;-145.50;100.00;65435.88;4999097;28;20041;-73
2021/05/15 04:45:15;;;;;;;32.38;19.10;;;;;;;-145.50;100.00;65435.88;4992550;28;20041;-73
2021/05/15 04:47:41;;;;;;;36.47;18.73;;;;;;;-145.50;100.00;65435.88;4996158;28;20133;-73
2021/05/15 04:50:10;;;;;;;33.70;20.17;;;;;;;-145.50;100.00;65435.88;4998199;28;20564;-72
2021/05/15 04:52:35;;;;;;;29.83;19.73;;;;;;;-145.50;100.00;65435.88;4993909;28;20029;-73
2021/05/15 04:55:00;;;;;;;30.90;19.67;;;;;;;-145.50;100.00;65435.88;4997955;28;20103;-73
2021/05/15 04:57:26;;;;;;;34.92;21.40;;;;;;;-145.50;100.00;65435.88;4996517;28;20045;-74
2021/05/15 04:59:51;;;;;;;35.20;22.00;;;;;;;-145.50;100.00;65435.88;4997560;28;20037;-72
2021/05/15 05:02:17;;;;;;;33.15;19.90;;;;;;;-145.50;100.00;65435.88;4997467;28;20061;-74
2021/05/15 05:04:42;;;;;;;35.35;21.35;;;;;;;-145.50;100.00;65435.88;4997612;28;20036;-73
2021/05/15 05:07:07;;;;;;;32.47;21.70;;;;;;;-145.50;100.00;65435.88;4998288;28;20034;-73
2021/05/15 05:09:33;;;;;;;36.10;21.13;;;;;;;-145.50;100.00;65435.88;4988122;28;20059;-73
2021/05/15 05:11:58;;;;;;;36.20;21.77;;;;;;;-145.50;100.00;65435.88;5003950;28;20041;-73
2021/05/15 05:14:24;;;;;;;34.65;20.48;;;;;;;-145.50;100.00;65435.88;4993740;28;20048;-73
2021/05/15 05:16:51;;;;;;;37.25;20.88;;;;;;;-145.50;100.00;65435.88;4993353;28;20517;-73
2021/05/15 05:19:16;;;;;;;32.45;19.88;;;;;;;-145.50;100.00;65435.88;4993103;28;20038;-73
2021/05/15 05:21:42;;;;;;;34.45;21.35;;;;;;;-145.50;100.00;65435.88;4994052;28;20083;-73
2021/05/15 05:24:08;;;;;;;35.53;21.00;;;;;;;-145.50;100.00;65435.88;4995723;28;20132;-73
2021/05/15 05:26:37;;;;;;;32.95;20.15;;;;;;;-145.50;100.00;65435.88;4995627;28;20072;-71
2021/05/15 05:29:09;;;;;;;40.72;21.42;;;;;;;-145.50;100.00;65435.88;5002665;28;20068;-71
2021/05/15 05:31:45;;;;;;;36.60;21.20;;;;;;;-145.50;100.00;65435.88;4984115;28;20073;-72
2021/05/15 05:34:11;;;;;;;36.28;21.10;;;;;;;-145.50;100.00;65435.88;4994438;28;20763;-72
2021/05/15 05:36:37;;;;;;;37.75;21.13;;;;;;;-145.50;100.00;65435.88;4991463;28;20053;-71
2021/05/15 05:39:08;;;;;;;35.75;20.38;;;;;;;-145.50;100.00;65435.88;4997491;28;20033;-71
2021/05/15 05:41:34;;;;;;;37.55;21.17;;;;;;;-145.50;100.00;65435.88;4999500;28;20050;-72
2021/05/15 05:43:59;;;;;;;36.83;21.88;;;;;;;-145.50;100.00;65435.88;4990333;28;20128;-71
2021/05/15 05:46:24;;;;;;;34.22;21.10;;;;;;;-145.50;100.00;65435.88;4998840;28;20819;-72
2021/05/15 05:48:50;;;;;;;35.08;21.52;;;;;;;-145.50;100.00;65435.88;4990720;28;20117;-72
2021/05/15 05:51:15;;;;;;;39.58;23.42;;;;;;;-145.50;100.00;65435.88;4999886;28;20105;-72
2021/05/15 05:53:40;;;;;;;32.22;20.95;;;;;;;-145.50;100.00;65435.88;4990848;28;20558;-72
2021/05/15 05:56:06;;;;;;;40.20;21.80;;;;;;;-145.50;100.00;65435.88;4994938;28;20116;-72
2021/05/15 05:58:31;;;;;;;39.22;23.63;;;;;;;-145.50;100.00;65435.88;4997938;28;20041;-72
2021/05/15 06:00:57;;;;;;;40.47;24.23;;;;;;;-145.50;100.00;65435.88;4996139;28;20046;-72
2021/05/15 06:03:23;;;;;;;42.30;24.35;;;;;;;-145.50;100.00;65435.88;4991606;28;20033;-72
2021/05/15 06:05:48;;;;;;;39.78;24.23;;;;;;;-145.50;100.00;65435.88;4990668;28;20049;-72
2021/05/15 06:08:14;;;;;;;39.70;23.60;;;;;;;-145.50;100.00;65435.88;4998404;28;20043;-72
2021/05/15 06:10:40;;;;;;;37.45;23.13;;;;;;;-145.50;100.00;65435.88;4988900;28;20133;-71
2021/05/15 06:13:07;;;;;;;37.63;24.25;;;;;;;-145.50;100.00;65435.88;4992008;28;20913;-72
2021/05/15 06:15:33;;;;;;;40.47;26.20;;;;;;;-145.50;100.00;65435.88;4994222;28;20053;-71
2021/05/15 06:17:58;;;;;;;43.40;26.50;;;;;;;-145.50;100.00;65435.88;4989997;28;20025;-72
2021/05/15 06:20:24;;;;;;;43.50;25.65;;;;;;;-145.50;100.00;65435.88;4999014;28;20045;-71
2021/05/15 06:22:50;;;;;;;43.45;26.63;;;;;;;-145.50;100.00;65435.88;4993309;28;20128;-72
2021/05/15 06:25:17;;;;;;;44.13;26.67;;;;;;;-145.50;100.00;65435.88;4998797;28;20449;-72
2021/05/15 06:27:42;;;;;;;45.80;27.17;;;;;;;-145.50;100.00;65435.88;4997572;28;20500;-72
2021/05/15 06:30:08;;;;;;;46.78;27.30;;;;;;;-145.50;100.00;65435.88;4993558;28;20087;-72
2021/05/15 06:32:34;;;;;;;50.08;29.60;;;;;;;-145.50;100.00;65435.88;4996093;28;20046;-72
2021/05/15 06:35:00;;;;;;;53.10;27.50;;;;;;;-145.50;100.00;65435.88;4994348;28;20050;-72
2021/05/15 06:37:25;;;;;;;48.85;28.52;;;;;;;-145.50;100.00;65435.88;4996253;28;20034;-72
2021/05/15 06:39:50;;;;;;;49.30;30.33;;;;;;;-145.50;100.00;65435.88;4992498;28;20049;-72
2021/05/15 06:42:16;;;;;;;55.15;30.95;;;;;;;-145.50;100.00;65435.88;4997806;28;20461;-72
2021/05/15 06:44:41;;;;;;;56.20;29.95;;;;;;;-145.50;100.00;65435.88;4991721;28;20038;-72
2021/05/15 06:47:07;;;;;;;59.70;31.42;;;;;;;-145.50;100.00;65435.88;4992607;28;20034;-72
2021/05/15 06:49:32;;;;;;;64.05;33.25;;;;;;;-145.50;100.00;65435.88;5000773;28;20136;-72
2021/05/15 06:51:57;;;;;;;59.50;32.92;;;;;;;-145.50;100.00;65435.88;4984415;28;20030;-72
2021/05/15 06:54:26;;;;;;;65.70;32.13;;;;;;;-145.50;100.00;65435.88;4997367;28;20036;-72
2021/05/15 06:56:51;;;;;;;65.63;34.63;;;;;;;-145.50;100.00;65435.88;4989686;28;20196;-72
2021/05/15 06:59:17;;;;;;;62.05;32.53;;;;;;;-145.50;100.00;65435.88;4993282;28;20108;-72
2021/05/15 07:01:46;;;;;;;63.92;33.90;;;;;;;-145.50;100.00;65435.88;4995701;28;20050;-72
2021/05/15 07:04:12;;;;;;;63.42;32.13;;;;;;;-145.50;100.00;65435.88;4999244;28;20042;-72
2021/05/15 07:06:37;;;;;;;61.53;32.17;;;;;;;-145.50;100.00;65435.88;4994904;28;20038;-71
2021/05/15 07:09:03;;;;;;;60.83;30.90;;;;;;;-145.50;100.00;65435.88;4991006;28;20041;-73
2021/05/15 07:11:29;;;;;;;62.03;32.13;;;;;;;-145.50;100.00;65435.88;4998317;28;20057;-74
2021/05/15 07:13:54;;;;;;;62.88;32.20;;;;;;;-145.50;100.00;65435.88;4985994;28;20114;-73
2021/05/15 07:16:19;;;;;;;58.05;31.58;;;;;;;-145.50;100.00;65435.88;4998052;28;20038;-73
2021/05/15 07:18:45;;;;;;;60.92;32.25;;;;;;;-145.50;100.00;65435.88;4994989;28;20045;-73
2021/05/15 07:21:10;;;;;;;54.78;29.00;;;;;;;-145.50;100.00;65435.88;4996558;28;20038;-73
2021/05/15 07:23:36;;;;;;;56.47;30.52;;;;;;;-145.50;100.00;65435.88;4993003;28;20065;-73
2021/05/15 07:26:01;;;;;;;60.70;31.27;;;;;;;-145.50;100.00;65435.88;4986744;28;20641;-73
2021/05/15 07:28:26;;;;;;;58.47;31.65;;;;;;;-145.50;100.00;65435.88;4992978;28;20498;-74
2021/05/15 07:30:52;;;;;;;58.50;30.77;;;;;;;-145.50;100.00;65435.88;4987878;28;20034;-74
2021/05/15 07:33:17;;;;;;;61.35;31.75;;;;;;;-145.50;100.00;65435.88;4994622;28;20037;-76
2021/05/15 07:35:43;;;;;;;59.75;31.80;;;;;;;-145.50;100.00;65435.88;5002577;28;20034;-75
2021/05/15 07:38:08;;;;;;;56.05;31.98;;;;;;;-145.50;100.00;65435.88;4988772;28;20098;-73
2021/05/15 07:40:34;;;;;;;54.47;30.83;;;;;;;-145.50;100.00;65435.88;4998699;28;20088;-74
2021/05/15 07:42:59;;;;;;;53.63;30.52;;;;;;;-145.50;100.00;65435.88;4985973;28;20050;-73
2021/05/15 07:45:25;;;;;;;54.63;30.13;;;;;;;-145.50;100.00;65435.88;4998809;28;20037;-73
2021/05/15 07:47:50;;;;;;;52.38;30.15;;;;;;;-145.50;100.00;65435.88;4988420;28;20041;-73
2021/05/15 07:50:16;;;;;;;50.78;28.50;;;;;;;-145.50;100.00;65435.88;4999123;28;20092;-75
2021/05/15 07:52:41;;;;;;;52.83;30.05;;;;;;;-145.50;100.00;65435.88;4991876;28;20030;-73
2021/05/15 07:55:08;;;;;;;48.90;29.30;;;;;;;-145.50;100.00;65435.88;4994468;28;20091;-73
2021/05/15 07:57:34;;;;;;;43.00;27.10;;;;;;;-145.50;100.00;65435.88;4996067;28;20072;-71
2021/05/15 07:59:59;;;;;;;46.97;28.80;;;;;;;-145.50;100.00;65435.88;4994113;28;20058;-72
2021/05/15 08:02:27;;;;;;;47.05;27.02;;;;;;;-145.50;100.00;65435.88;4996029;28;20490;-74
2021/05/15 08:04:54;;;;;;;46.90;27.65;;;;;;;-145.50;100.00;65435.88;5000313;28;20477;-72
2021/05/15 08:07:19;;;;;;;45.58;28.38;;;;;;;-145.50;100.00;65435.88;4992567;28;20396;-72
2021/05/15 08:09:45;;;;;;;42.70;27.90;;;;;;;-145.50;100.00;65435.88;5000034;28;20041;-73
2021/05/15 08:12:10;;;;;;;46.53;26.58;;;;;;;-145.50;100.00;65435.88;4994496;28;20501;-74
2021/05/15 08:14:36;;;;;;;42.53;28.35;;;;;;;-145.50;100.00;65435.88;5005469;28;20064;-73
2021/05/15 08:17:01;;;;;;;42.63;26.70;;;;;;;-145.50;100.00;65435.88;4996959;28;20077;-73
2021/05/15 08:19:26;;;;;;;43.78;26.90;;;;;;;-145.50;100.00;65435.88;5002108;28;20051;-74
2021/05/15 08:21:53;;;;;;;40.47;24.73;;;;;;;-145.50;100.00;65435.88;4983030;28;20121;-71
2021/05/15 08:24:18;;;;;;;42.05;24.45;;;;;;;-145.50;100.00;65435.88;4996110;28;20069;-71
2021/05/15 08:26:45;;;;;;;39.03;22.85;;;;;;;-145.50;100.00;65435.88;4993611;28;20141;-72
2021/05/15 08:29:12;;;;;;;36.10;23.65;;;;;;;-145.50;100.00;65435.88;4994362;28;20053;-71
2021/05/15 08:31:38;;;;;;;39.05;23.75;;;;;;;-145.50;100.00;65435.88;4999397;28;20397;-72
2021/05/15 08:34:03;;;;;;;40.20;23.70;;;;;;;-145.50;100.00;65435.88;4995990;28;20033;-71
2021/05/15 08:36:29;;;;;;;36.67;22.15;;;;;;;-145.50;100.00;65435.88;4993718;28;20040;-70
2021/05/15 08:38:56;;;;;;;33.42;20.73;;;;;;;-145.50;100.00;65435.88;4993470;28;20049;-72
2021/05/15 08:41:21;;;;;;;37.70;21.77;;;;;;;-145.50;100.00;65435.88;5001116;28;20038;-70
2021/05/15 08:43:48;;;;;;;34.47;21.13;;;;;;;-145.50;100.00;65435.88;5001184;28;20038;-74
2021/05/15 08:46:14;;;;;;;33.60;21.75;;;;;;;-145.50;100.00;65435.88;4996483;28;20034;-72
2021/05/15 08:48:42;;;;;;;36.53;22.23;;;;;;;-145.50;100.00;65435.88;4996461;28;20778;-72
2021/05/15 08:51:09;;;;;;;36.70;22.58;;;;;;;-145.50;100.00;65435.88;4991225;28;20038;-72
2021/05/15 08:53:37;;;;;;;32.42;21.67;;;;;;;-145.50;100.00;65435.88;4999868;28;20136;-73
2021/05/15 08:56:03;;;;;;;36.88;23.85;;;;;;;-145.50;100.00;65435.88;4993708;28;20034;-72
2021/05/15 08:58:28;;;;;;;35.53;23.45;;;;;;;-145.50;100.00;65435.88;4999869;28;20052;-72
2021/05/15 09:00:54;;;;;;;39.80;25.63;;;;;;;-145.50;100.00;65435.88;4999178;28;20107;-71
2021/05/15 09:03:20;;;;;;;35.13;22.45;;;;;;;-145.50;100.00;65435.88;4989967;28;20061;-73
2021/05/15 09:05:50;;;;;;;38.17;25.38;;;;;;;-145.50;100.00;65435.88;4993185;28;20490;-74
2021/05/15 09:08:18;;;;;;;35.88;23.38;;;;;;;-145.50;100.00;65435.88;4993587;28;20054;-73
2021/05/15 09:10:48;;;;;;;35.50;22.73;;;;;;;-145.50;100.00;65435.88;4997648;28;20456;-73
2021/05/15 09:13:17;;;;;;;38.35;25.27;;;;;;;-145.50;100.00;65435.88;4992073;28;20097;-73
2021/05/15 09:15:53;;;;;;;39.20;25.45;;;;;;;-145.50;100.00;65435.88;4995243;28;20052;-73
2021/05/15 09:18:23;;;;;;;39.53;26.33;;;;;;;-145.50;100.00;65435.88;4996062;28;20124;-72
2021/05/15 09:20:52;;;;;;;40.00;26.45;;;;;;;-145.50;100.00;65435.88;4982625;28;20054;-71
2021/05/15 09:23:23;;;;;;;40.50;26.88;;;;;;;-145.50;100.00;65435.88;5000581;28;20148;-71
2021/05/15 09:26:04;;;;;;;41.58;26.38;;;;;;;-145.50;100.00;65435.88;4990994;28;20056;-71
2021/05/15 09:28:34;;;;;;;39.85;24.80;;;;;;;-145.50;100.00;65435.88;5002546;28;20140;-72
2021/05/15 09:31:26;;;;;;;40.42;24.92;;;;;;;-145.50;100.00;65435.88;4987294;28;20797;-72
2021/05/15 09:34:07;;;;;;;39.83;24.63;;;;;;;-145.50;100.00;65435.88;4988362;28;20082;-74
2021/05/15 09:36:39;;;;;;;40.25;25.33;;;;;;;-145.50;100.00;65435.88;4990535;28;20125;-71
2021/05/15 09:39:08;;;;;;;36.05;24.13;;;;;;;-145.50;100.00;65435.88;5000537;28;20093;-71
2021/05/15 09:41:49;;;;;;;36.33;23.90;;;;;;;-145.50;100.00;65435.88;4992633;28;20065;-72
2021/05/15 09:44:17;;;;;;;36.22;24.83;;;;;;;-145.50;100.00;65435.88;4996351;28;20077;-73
2021/05/15 09:46:46;;;;;;;33.78;22.85;;;;;;;-145.50;100.00;65435.88;4992669;28;20575;-72
2021/05/15 09:49:14;;;;;;;35.95;23.15;;;;;;;-145.50;100.00;65435.88;4992256;28;20058;-72
2021/05/15 09:51:50;;;;;;;36.30;23.38;;;;;;;-145.50;100.00;65435.88;4994372;28;20559;-73
2021/05/15 09:54:22;;;;;;;37.10;24.05;;;;;;;-145.50;100.00;65435.88;4996154;28;20077;-72
2021/05/15 09:57:05;;;;;;;36.60;22.55;;;;;;;-145.50;100.00;65435.88;4997047;28;20146;-73
2021/05/15 09:59:34;;;;;;;36.67;23.92;;;;;;;-145.50;100.00;65435.88;4987698;28;20081;-72
2021/05/15 10:02:03;;;;;;;33.58;21.92;;;;;;;-145.50;100.00;65435.88;4990186;28;20421;-70
2021/05/15 10:04:30;;;;;;;34.58;20.40;;;;;;;-145.50;100.00;65435.88;4999029;28;20054;-72
2021/05/15 10:06:57;;;;;;;31.63;20.60;;;;;;;-145.50;100.00;65435.88;4994216;28;20064;-71
2021/05/15 10:09:28;;;;;;;30.92;19.63;;;;;;;-145.50;100.00;65435.88;5002294;28;20049;-73
2021/05/15 10:11:55;;;;;;;33.22;21.42;;;;;;;-145.50;100.00;65435.88;4991078;28;20049;-72
2021/05/15 10:14:22;;;;;;;31.48;20.90;;;;;;;-145.50;100.00;65435.88;4998030;28;20474;-71
2021/05/15 10:16:50;;;;;;;36.08;21.65;;;;;;;-145.50;100.00;65435.88;4991271;28;20065;-72
2021/05/15 10:19:16;;;;;;;32.20;21.13;;;;;;;-145.50;100.00;65435.88;5001292;28;20152;-72
2021/05/15 10:21:44;;;;;;;30.20;20.23;;;;;;;-145.50;100.00;65435.88;4997035;28;20057;-73
2021/05/15 10:24:20;;;;;;;32.05;20.13;;;;;;;-145.50;100.00;65435.88;4994347;28;20137;-71
2021/05/15 10:26:56;;;;;;;29.95;20.65;;;;;;;-145.50;100.00;65435.88;4992311;28;20078;-74
2021/05/15 10:29:41;;;;;;;30.58;20.10;;;;;;;-145.50;100.00;65435.88;5006441;28;20053;-73
2021/05/15 10:32:30;;;;;;;32.58;18.73;;;;;;;-145.50;100.00;65435.88;4998604;28;20510;-73
2021/05/15 10:35:05;;;;;;;26.90;17.77;;;;;;;-145.50;100.00;65435.88;4991731;28;20050;-74
2021/05/15 10:37:37;;;;;;;30.52;19.05;;;;;;;-145.50;100.00;65435.88;4994396;28;20046;-74
2021/05/15 10:40:18;;;;;;;31.73;18.90;;;;;;;-145.50;100.00;65435.88;4988999;28;20085;-72
2021/05/15 10:42:56;;;;;;;25.90;18.33;;;;;;;-145.50;100.00;65435.88;4995132;28;20073;-74
2021/05/15 10:45:36;;;;;;;28.23;18.02;;;;;;;-145.50;100.00;65435.88;4994918;28;20104;-74
2021/05/15 10:48:22;;;;;;;30.42;18.67;;;;;;;-145.50;100.00;65435.88;5002896;28;20573;-73
2021/05/15 10:50:52;;;;;;;27.20;18.85;;;;;;;-145.50;100.00;65435.88;4987079;28;20219;-73
2021/05/15 10:53:27;;;;;;;29.92;18.92;;;;;;;-145.50;100.00;65435.88;4994869;28;20086;-73
2021/05/15 10:56:14;;;;;;;28.33;18.50;;;;;;;-145.50;100.00;65435.88;4992279;28;20085;-72